sensor_id;sensor_type;location;lat;lon;timestamp;temperature;humidity
69595;DHT22;56800;52.142;5.364;2023-05-20T00:00:46;14.10;59.50
69595;DHT22;56800;52.142;5.364;2023-05-20T00:03:16;14.10;59.50
69595;DHT22;56800;52.142;5.364;2023-05-20T00:05:43;14.10;59.60
69595;DHT22;56800;52.142;5.364;2023-05-20T00:08:10;14.10;59.70
69595;DHT22;56800;52.142;5.364;2023-05-20T00:10:38;14.00;59.70
69595;DHT22;56800;52.142;5.364;2023-05-20T00:13:04;14.00;59.90
69595;DHT22;56800;52.142;5.364;2023-05-20T00:15:35;14.00;59.90
69595;DHT22;56800;52.142;5.364;2023-05-20T00:18:03;14.00;59.90
69595;DHT22;56800;52.142;5.364;2023-05-20T00:20:30;14.00;59.90
69595;DHT22;56800;52.142;5.364;2023-05-20T00:22:57;14.00;60.00
69595;DHT22;56800;52.142;5.364;2023-05-20T00:25:24;13.90;60.10
69595;DHT22;56800;52.142;5.364;2023-05-20T00:27:51;13.90;61.00
69595;DHT22;56800;52.142;5.364;2023-05-20T00:30:17;13.90;60.20
69595;DHT22;56800;52.142;5.364;2023-05-20T00:32:44;13.90;60.30
69595;DHT22;56800;52.142;5.364;2023-05-20T00:35:11;13.90;60.40
69595;DHT22;56800;52.142;5.364;2023-05-20T00:37:38;13.80;60.30
69595;DHT22;56800;52.142;5.364;2023-05-20T00:40:05;13.80;60.40
69595;DHT22;56800;52.142;5.364;2023-05-20T00:42:32;13.80;60.50
69595;DHT22;56800;52.142;5.364;2023-05-20T00:44:59;13.70;60.60
69595;DHT22;56800;52.142;5.364;2023-05-20T00:47:29;13.70;60.70
69595;DHT22;56800;52.142;5.364;2023-05-20T00:49:58;13.70;60.80
69595;DHT22;56800;52.142;5.364;2023-05-20T00:52:27;13.70;60.80
69595;DHT22;56800;52.142;5.364;2023-05-20T00:54:56;13.70;60.90
69595;DHT22;56800;52.142;5.364;2023-05-20T00:57:23;13.70;60.90
69595;DHT22;56800;52.142;5.364;2023-05-20T00:59:50;13.70;61.00
69595;DHT22;56800;52.142;5.364;2023-05-20T01:02:17;13.70;61.10
69595;DHT22;56800;52.142;5.364;2023-05-20T01:04:44;13.60;61.10
69595;DHT22;56800;52.142;5.364;2023-05-20T01:07:16;13.60;61.20
69595;DHT22;56800;52.142;5.364;2023-05-20T01:09:44;13.60;61.20
69595;DHT22;56800;52.142;5.364;2023-05-20T01:12:21;13.60;61.30
69595;DHT22;56800;52.142;5.364;2023-05-20T01:14:58;13.60;61.40
69595;DHT22;56800;52.142;5.364;2023-05-20T01:17:30;13.50;61.30
69595;DHT22;56800;52.142;5.364;2023-05-20T01:19:59;13.50;61.40
69595;DHT22;56800;52.142;5.364;2023-05-20T01:22:27;13.50;61.40
69595;DHT22;56800;52.142;5.364;2023-05-20T01:24:55;13.50;61.50
69595;DHT22;56800;52.142;5.364;2023-05-20T01:27:22;13.50;61.50
69595;DHT22;56800;52.142;5.364;2023-05-20T01:29:50;13.50;61.60
69595;DHT22;56800;52.142;5.364;2023-05-20T01:32:33;13.50;61.70
69595;DHT22;56800;52.142;5.364;2023-05-20T01:35:02;13.50;61.80
69595;DHT22;56800;52.142;5.364;2023-05-20T01:37:30;13.40;61.70
69595;DHT22;56800;52.142;5.364;2023-05-20T01:39:58;13.40;61.80
69595;DHT22;56800;52.142;5.364;2023-05-20T01:42:26;13.30;62.00
69595;DHT22;56800;52.142;5.364;2023-05-20T01:44:53;13.30;62.10
69595;DHT22;56800;52.142;5.364;2023-05-20T01:47:20;13.30;62.10
69595;DHT22;56800;52.142;5.364;2023-05-20T01:49:46;13.20;62.20
69595;DHT22;56800;52.142;5.364;2023-05-20T01:52:14;13.20;62.30
69595;DHT22;56800;52.142;5.364;2023-05-20T01:54:41;13.20;62.40
69595;DHT22;56800;52.142;5.364;2023-05-20T01:57:08;13.20;62.40
69595;DHT22;56800;52.142;5.364;2023-05-20T01:59:35;13.20;62.40
69595;DHT22;56800;52.142;5.364;2023-05-20T02:02:01;13.20;62.50
69595;DHT22;56800;52.142;5.364;2023-05-20T02:04:28;13.20;62.50
69595;DHT22;56800;52.142;5.364;2023-05-20T02:06:55;13.10;62.50
69595;DHT22;56800;52.142;5.364;2023-05-20T02:09:21;13.10;62.60
69595;DHT22;56800;52.142;5.364;2023-05-20T02:11:48;13.10;62.50
69595;DHT22;56800;52.142;5.364;2023-05-20T02:14:15;13.10;62.60
69595;DHT22;56800;52.142;5.364;2023-05-20T02:16:41;13.10;62.60
69595;DHT22;56800;52.142;5.364;2023-05-20T02:19:08;13.10;62.70
69595;DHT22;56800;52.142;5.364;2023-05-20T02:21:40;13.10;62.70
69595;DHT22;56800;52.142;5.364;2023-05-20T02:24:07;13.10;62.90
69595;DHT22;56800;52.142;5.364;2023-05-20T02:26:34;13.10;62.90
69595;DHT22;56800;52.142;5.364;2023-05-20T02:29:00;13.00;62.80
69595;DHT22;56800;52.142;5.364;2023-05-20T02:31:27;13.00;62.90
69595;DHT22;56800;52.142;5.364;2023-05-20T02:33:54;13.00;62.90
69595;DHT22;56800;52.142;5.364;2023-05-20T02:36:20;13.00;63.00
69595;DHT22;56800;52.142;5.364;2023-05-20T02:38:47;13.00;63.10
69595;DHT22;56800;52.142;5.364;2023-05-20T02:41:14;13.00;63.20
69595;DHT22;56800;52.142;5.364;2023-05-20T02:43:41;12.90;63.20
69595;DHT22;56800;52.142;5.364;2023-05-20T02:46:09;12.90;63.30
69595;DHT22;56800;52.142;5.364;2023-05-20T02:48:37;12.90;63.30
69595;DHT22;56800;52.142;5.364;2023-05-20T02:51:04;12.90;63.30
69595;DHT22;56800;52.142;5.364;2023-05-20T02:53:31;12.90;63.50
69595;DHT22;56800;52.142;5.364;2023-05-20T02:55:58;12.90;63.50
69595;DHT22;56800;52.142;5.364;2023-05-20T02:58:25;12.80;63.50
69595;DHT22;56800;52.142;5.364;2023-05-20T03:00:53;12.90;63.70
69595;DHT22;56800;52.142;5.364;2023-05-20T03:03:20;12.80;63.60
69595;DHT22;56800;52.142;5.364;2023-05-20T03:05:47;12.80;63.60
69595;DHT22;56800;52.142;5.364;2023-05-20T03:08:13;12.80;63.80
69595;DHT22;56800;52.142;5.364;2023-05-20T03:10:40;12.70;63.80
69595;DHT22;56800;52.142;5.364;2023-05-20T03:13:07;12.70;63.90
69595;DHT22;56800;52.142;5.364;2023-05-20T03:15:36;12.70;64.00
69595;DHT22;56800;52.142;5.364;2023-05-20T03:18:03;12.70;64.00
69595;DHT22;56800;52.142;5.364;2023-05-20T03:20:31;12.70;64.10
69595;DHT22;56800;52.142;5.364;2023-05-20T03:23:04;12.60;64.20
69595;DHT22;56800;52.142;5.364;2023-05-20T03:25:31;12.60;64.20
69595;DHT22;56800;52.142;5.364;2023-05-20T03:27:58;12.60;64.30
69595;DHT22;56800;52.142;5.364;2023-05-20T03:30:26;12.60;64.40
69595;DHT22;56800;52.142;5.364;2023-05-20T03:32:54;12.60;64.50
69595;DHT22;56800;52.142;5.364;2023-05-20T03:35:23;12.60;64.50
69595;DHT22;56800;52.142;5.364;2023-05-20T03:37:50;12.50;64.50
69595;DHT22;56800;52.142;5.364;2023-05-20T03:40:19;12.50;64.50
69595;DHT22;56800;52.142;5.364;2023-05-20T03:42:48;12.50;64.60
69595;DHT22;56800;52.142;5.364;2023-05-20T03:45:17;12.50;64.70
69595;DHT22;56800;52.142;5.364;2023-05-20T03:47:44;12.50;64.70
69595;DHT22;56800;52.142;5.364;2023-05-20T03:50:11;12.50;64.80
69595;DHT22;56800;52.142;5.364;2023-05-20T03:52:37;12.50;64.90
69595;DHT22;56800;52.142;5.364;2023-05-20T03:55:06;12.50;64.90
69595;DHT22;56800;52.142;5.364;2023-05-20T03:57:34;12.50;64.90
69595;DHT22;56800;52.142;5.364;2023-05-20T04:00:03;12.50;65.10
69595;DHT22;56800;52.142;5.364;2023-05-20T04:02:35;12.50;65.20
69595;DHT22;56800;52.142;5.364;2023-05-20T04:05:03;12.50;65.20
69595;DHT22;56800;52.142;5.364;2023-05-20T04:07:30;12.50;65.30
69595;DHT22;56800;52.142;5.364;2023-05-20T04:09:57;12.50;65.30
69595;DHT22;56800;52.142;5.364;2023-05-20T04:12:24;12.50;65.40
69595;DHT22;56800;52.142;5.364;2023-05-20T04:14:59;12.50;65.40
69595;DHT22;56800;52.142;5.364;2023-05-20T04:17:28;12.50;65.50
69595;DHT22;56800;52.142;5.364;2023-05-20T04:19:57;12.60;65.60
69595;DHT22;56800;52.142;5.364;2023-05-20T04:22:27;12.50;65.50
69595;DHT22;56800;52.142;5.364;2023-05-20T04:24:54;12.60;65.60
69595;DHT22;56800;52.142;5.364;2023-05-20T04:27:21;12.60;65.60
69595;DHT22;56800;52.142;5.364;2023-05-20T04:29:49;12.60;65.60
69595;DHT22;56800;52.142;5.364;2023-05-20T04:32:18;12.60;65.60
69595;DHT22;56800;52.142;5.364;2023-05-20T04:34:45;12.60;65.70
69595;DHT22;56800;52.142;5.364;2023-05-20T04:37:13;12.70;65.70
69595;DHT22;56800;52.142;5.364;2023-05-20T04:39:40;12.70;65.70
69595;DHT22;56800;52.142;5.364;2023-05-20T04:42:09;12.70;65.80
69595;DHT22;56800;52.142;5.364;2023-05-20T04:44:36;12.70;65.80
69595;DHT22;56800;52.142;5.364;2023-05-20T04:47:04;12.80;65.90
69595;DHT22;56800;52.142;5.364;2023-05-20T04:49:33;12.80;65.90
69595;DHT22;56800;52.142;5.364;2023-05-20T04:52:00;12.80;65.80
69595;DHT22;56800;52.142;5.364;2023-05-20T04:54:26;12.80;65.90
69595;DHT22;56800;52.142;5.364;2023-05-20T04:56:53;12.80;65.90
69595;DHT22;56800;52.142;5.364;2023-05-20T04:59:19;12.90;65.90
69595;DHT22;56800;52.142;5.364;2023-05-20T05:01:46;12.90;65.90
69595;DHT22;56800;52.142;5.364;2023-05-20T05:04:13;12.90;65.90
69595;DHT22;56800;52.142;5.364;2023-05-20T05:06:40;12.90;65.90
69595;DHT22;56800;52.142;5.364;2023-05-20T05:09:07;12.90;65.80
69595;DHT22;56800;52.142;5.364;2023-05-20T05:11:33;13.00;65.90
69595;DHT22;56800;52.142;5.364;2023-05-20T05:14:00;13.00;66.00
69595;DHT22;56800;52.142;5.364;2023-05-20T05:16:27;13.00;66.10
69595;DHT22;56800;52.142;5.364;2023-05-20T05:18:54;13.00;66.00
69595;DHT22;56800;52.142;5.364;2023-05-20T05:21:20;13.00;65.90
69595;DHT22;56800;52.142;5.364;2023-05-20T05:23:47;13.00;66.00
69595;DHT22;56800;52.142;5.364;2023-05-20T05:26:14;13.10;66.00
69595;DHT22;56800;52.142;5.364;2023-05-20T05:28:41;13.10;66.00
69595;DHT22;56800;52.142;5.364;2023-05-20T05:31:11;13.10;66.00
69595;DHT22;56800;52.142;5.364;2023-05-20T05:33:37;13.10;65.90
69595;DHT22;56800;52.142;5.364;2023-05-20T05:36:04;13.20;65.90
69595;DHT22;56800;52.142;5.364;2023-05-20T05:38:32;13.20;65.90
69595;DHT22;56800;52.142;5.364;2023-05-20T05:40:58;13.20;66.70
69595;DHT22;56800;52.142;5.364;2023-05-20T05:43:25;13.20;65.90
69595;DHT22;56800;52.142;5.364;2023-05-20T05:45:52;13.30;66.00
69595;DHT22;56800;52.142;5.364;2023-05-20T05:48:18;13.30;65.90
69595;DHT22;56800;52.142;5.364;2023-05-20T05:50:45;13.40;66.00
69595;DHT22;56800;52.142;5.364;2023-05-20T05:53:12;13.40;65.80
69595;DHT22;56800;52.142;5.364;2023-05-20T05:55:39;13.40;65.90
69595;DHT22;56800;52.142;5.364;2023-05-20T05:58:06;13.50;65.90
69595;DHT22;56800;52.142;5.364;2023-05-20T06:00:32;13.50;65.80
69595;DHT22;56800;52.142;5.364;2023-05-20T06:02:59;13.50;65.80
69595;DHT22;56800;52.142;5.364;2023-05-20T06:05:27;13.60;65.80
69595;DHT22;56800;52.142;5.364;2023-05-20T06:07:55;13.60;65.70
69595;DHT22;56800;52.142;5.364;2023-05-20T06:10:22;13.70;65.60
69595;DHT22;56800;52.142;5.364;2023-05-20T06:12:49;13.80;65.40
69595;DHT22;56800;52.142;5.364;2023-05-20T06:15:15;13.80;65.40
69595;DHT22;56800;52.142;5.364;2023-05-20T06:17:42;13.90;65.30
69595;DHT22;56800;52.142;5.364;2023-05-20T06:20:10;14.00;65.20
69595;DHT22;56800;52.142;5.364;2023-05-20T06:22:36;14.00;65.00
69595;DHT22;56800;52.142;5.364;2023-05-20T06:25:03;14.10;65.00
69595;DHT22;56800;52.142;5.364;2023-05-20T06:27:31;14.20;65.00
69595;DHT22;56800;52.142;5.364;2023-05-20T06:29:58;14.20;65.20
69595;DHT22;56800;52.142;5.364;2023-05-20T06:32:26;14.30;65.10
69595;DHT22;56800;52.142;5.364;2023-05-20T06:34:53;14.40;65.10
69595;DHT22;56800;52.142;5.364;2023-05-20T06:37:20;14.50;65.00
69595;DHT22;56800;52.142;5.364;2023-05-20T06:39:50;14.50;65.80
69595;DHT22;56800;52.142;5.364;2023-05-20T06:42:19;14.60;64.90
69595;DHT22;56800;52.142;5.364;2023-05-20T06:44:47;14.70;64.70
69595;DHT22;56800;52.142;5.364;2023-05-20T06:47:15;14.70;64.70
69595;DHT22;56800;52.142;5.364;2023-05-20T06:49:43;14.80;64.70
69595;DHT22;56800;52.142;5.364;2023-05-20T06:52:13;14.90;64.90
69595;DHT22;56800;52.142;5.364;2023-05-20T06:54:40;15.00;64.60
69595;DHT22;56800;52.142;5.364;2023-05-20T06:57:07;15.00;64.30
69595;DHT22;56800;52.142;5.364;2023-05-20T06:59:35;15.10;64.10
69595;DHT22;56800;52.142;5.364;2023-05-20T07:02:03;15.10;64.00
69595;DHT22;56800;52.142;5.364;2023-05-20T07:04:29;15.30;64.00
69595;DHT22;56800;52.142;5.364;2023-05-20T07:06:56;15.30;63.90
69595;DHT22;56800;52.142;5.364;2023-05-20T07:09:23;15.40;63.70
69595;DHT22;56800;52.142;5.364;2023-05-20T07:11:50;15.40;63.70
69595;DHT22;56800;52.142;5.364;2023-05-20T07:14:17;15.50;63.70
69595;DHT22;56800;52.142;5.364;2023-05-20T07:16:43;15.60;63.60
69595;DHT22;56800;52.142;5.364;2023-05-20T07:19:10;15.70;63.20
69595;DHT22;56800;52.142;5.364;2023-05-20T07:21:37;15.80;63.10
69595;DHT22;56800;52.142;5.364;2023-05-20T07:24:04;15.80;62.80
69595;DHT22;56800;52.142;5.364;2023-05-20T07:26:31;15.90;62.50
69595;DHT22;56800;52.142;5.364;2023-05-20T07:29:03;16.00;63.30
69595;DHT22;56800;52.142;5.364;2023-05-20T07:31:30;16.20;62.50
69595;DHT22;56800;52.142;5.364;2023-05-20T07:33:57;16.30;62.10
69595;DHT22;56800;52.142;5.364;2023-05-20T07:36:26;16.50;61.90
69595;DHT22;56800;52.142;5.364;2023-05-20T07:38:54;16.70;61.70
69595;DHT22;56800;52.142;5.364;2023-05-20T07:41:30;16.80;61.60
69595;DHT22;56800;52.142;5.364;2023-05-20T07:43:56;16.80;60.90
69595;DHT22;56800;52.142;5.364;2023-05-20T07:46:23;16.80;60.60
69595;DHT22;56800;52.142;5.364;2023-05-20T07:48:50;16.90;60.40
69595;DHT22;56800;52.142;5.364;2023-05-20T07:51:17;17.00;60.30
69595;DHT22;56800;52.142;5.364;2023-05-20T07:53:44;17.10;60.10
69595;DHT22;56800;52.142;5.364;2023-05-20T07:56:11;17.20;59.90
69595;DHT22;56800;52.142;5.364;2023-05-20T07:58:40;17.20;59.70
69595;DHT22;56800;52.142;5.364;2023-05-20T08:01:07;17.30;59.40
69595;DHT22;56800;52.142;5.364;2023-05-20T08:03:35;17.40;59.30
69595;DHT22;56800;52.142;5.364;2023-05-20T08:06:02;17.50;59.50
69595;DHT22;56800;52.142;5.364;2023-05-20T08:08:29;17.60;59.30
69595;DHT22;56800;52.142;5.364;2023-05-20T08:10:56;17.60;58.90
69595;DHT22;56800;52.142;5.364;2023-05-20T08:13:23;17.70;58.20
69595;DHT22;56800;52.142;5.364;2023-05-20T08:15:52;17.80;58.20
69595;DHT22;56800;52.142;5.364;2023-05-20T08:18:19;17.90;58.10
69595;DHT22;56800;52.142;5.364;2023-05-20T08:20:46;17.90;57.10
69595;DHT22;56800;52.142;5.364;2023-05-20T08:23:13;17.90;56.10
69595;DHT22;56800;52.142;5.364;2023-05-20T08:25:40;18.00;55.20
69595;DHT22;56800;52.142;5.364;2023-05-20T08:28:06;18.10;54.40
69595;DHT22;56800;52.142;5.364;2023-05-20T08:30:33;18.20;54.20
69595;DHT22;56800;52.142;5.364;2023-05-20T08:33:00;18.30;53.90
69595;DHT22;56800;52.142;5.364;2023-05-20T08:35:27;18.40;53.40
69595;DHT22;56800;52.142;5.364;2023-05-20T08:37:54;18.40;52.90
69595;DHT22;56800;52.142;5.364;2023-05-20T08:40:21;18.50;52.00
69595;DHT22;56800;52.142;5.364;2023-05-20T08:42:49;18.60;51.50
69595;DHT22;56800;52.142;5.364;2023-05-20T08:45:19;18.60;50.90
69595;DHT22;56800;52.142;5.364;2023-05-20T08:47:46;18.80;50.20
69595;DHT22;56800;52.142;5.364;2023-05-20T08:50:13;18.80;50.10
69595;DHT22;56800;52.142;5.364;2023-05-20T08:52:45;18.90;50.20
69595;DHT22;56800;52.142;5.364;2023-05-20T08:55:32;19.00;49.50
69595;DHT22;56800;52.142;5.364;2023-05-20T08:58:02;19.10;49.20
69595;DHT22;56800;52.142;5.364;2023-05-20T09:00:29;19.20;49.30
69595;DHT22;56800;52.142;5.364;2023-05-20T09:02:58;19.30;49.30
69595;DHT22;56800;52.142;5.364;2023-05-20T09:05:27;19.50;48.60
69595;DHT22;56800;52.142;5.364;2023-05-20T09:08:07;19.50;47.90
69595;DHT22;56800;52.142;5.364;2023-05-20T09:10:35;19.50;47.20
69595;DHT22;56800;52.142;5.364;2023-05-20T09:13:03;19.60;47.10
69595;DHT22;56800;52.142;5.364;2023-05-20T09:15:31;19.60;47.20
69595;DHT22;56800;52.142;5.364;2023-05-20T09:18:03;19.70;47.70
69595;DHT22;56800;52.142;5.364;2023-05-20T09:20:33;19.80;47.80
69595;DHT22;56800;52.142;5.364;2023-05-20T09:23:02;19.90;47.00
69595;DHT22;56800;52.142;5.364;2023-05-20T09:25:29;19.90;46.60
69595;DHT22;56800;52.142;5.364;2023-05-20T09:27:57;19.80;46.10
69595;DHT22;56800;52.142;5.364;2023-05-20T09:30:24;19.80;46.00
69595;DHT22;56800;52.142;5.364;2023-05-20T09:32:57;19.90;46.00
69595;DHT22;56800;52.142;5.364;2023-05-20T09:35:26;20.00;45.90
69595;DHT22;56800;52.142;5.364;2023-05-20T09:37:54;20.00;45.50
69595;DHT22;56800;52.142;5.364;2023-05-20T09:40:26;20.10;45.00
69595;DHT22;56800;52.142;5.364;2023-05-20T09:43:00;20.20;44.60
69595;DHT22;56800;52.142;5.364;2023-05-20T09:45:28;20.30;44.40
69595;DHT22;56800;52.142;5.364;2023-05-20T09:47:55;20.40;43.70
69595;DHT22;56800;52.142;5.364;2023-05-20T09:50:23;20.50;43.20
69595;DHT22;56800;52.142;5.364;2023-05-20T09:52:52;20.60;42.80
69595;DHT22;56800;52.142;5.364;2023-05-20T09:55:22;20.80;42.70
69595;DHT22;56800;52.142;5.364;2023-05-20T09:57:49;20.90;42.60
69595;DHT22;56800;52.142;5.364;2023-05-20T10:00:16;20.90;41.80
69595;DHT22;56800;52.142;5.364;2023-05-20T10:02:47;21.00;41.90
69595;DHT22;56800;52.142;5.364;2023-05-20T10:05:26;21.00;41.70
69595;DHT22;56800;52.142;5.364;2023-05-20T10:10:45;21.20;41.70
69595;DHT22;56800;52.142;5.364;2023-05-20T10:19:09;21.70;42.20
69595;DHT22;56800;52.142;5.364;2023-05-20T10:21:37;21.80;41.90
69595;DHT22;56800;52.142;5.364;2023-05-20T10:24:08;22.00;41.60
69595;DHT22;56800;52.142;5.364;2023-05-20T10:26:37;22.10;41.00
69595;DHT22;56800;52.142;5.364;2023-05-20T10:29:19;22.30;41.10
69595;DHT22;56800;52.142;5.364;2023-05-20T10:31:49;22.30;40.10
69595;DHT22;56800;52.142;5.364;2023-05-20T10:34:18;22.30;39.90
69595;DHT22;56800;52.142;5.364;2023-05-20T10:37:05;22.30;40.10
69595;DHT22;56800;52.142;5.364;2023-05-20T10:39:32;22.30;40.30
69595;DHT22;56800;52.142;5.364;2023-05-20T10:42:07;22.50;41.00
69595;DHT22;56800;52.142;5.364;2023-05-20T10:44:44;22.70;40.70
69595;DHT22;56800;52.142;5.364;2023-05-20T10:47:12;22.70;40.10
69595;DHT22;56800;52.142;5.364;2023-05-20T10:49:44;22.80;40.30
69595;DHT22;56800;52.142;5.364;2023-05-20T10:52:16;22.80;39.70
69595;DHT22;56800;52.142;5.364;2023-05-20T10:54:45;22.80;39.30
69595;DHT22;56800;52.142;5.364;2023-05-20T10:57:14;22.70;39.40
69595;DHT22;56800;52.142;5.364;2023-05-20T10:59:40;22.70;39.50
69595;DHT22;56800;52.142;5.364;2023-05-20T11:02:09;22.70;39.10
69595;DHT22;56800;52.142;5.364;2023-05-20T11:04:38;22.70;39.10
69595;DHT22;56800;52.142;5.364;2023-05-20T11:07:05;22.60;39.40
69595;DHT22;56800;52.142;5.364;2023-05-20T11:09:31;22.50;39.30
69595;DHT22;56800;52.142;5.364;2023-05-20T11:11:59;22.40;39.30
69595;DHT22;56800;52.142;5.364;2023-05-20T11:14:29;22.40;39.70
69595;DHT22;56800;52.142;5.364;2023-05-20T11:16:59;22.40;40.00
69595;DHT22;56800;52.142;5.364;2023-05-20T11:19:26;22.50;40.10
69595;DHT22;56800;52.142;5.364;2023-05-20T11:21:53;22.70;39.90
69595;DHT22;56800;52.142;5.364;2023-05-20T11:24:27;22.80;39.60
69595;DHT22;56800;52.142;5.364;2023-05-20T11:26:55;22.70;39.20
69595;DHT22;56800;52.142;5.364;2023-05-20T11:29:25;22.80;39.80
69595;DHT22;56800;52.142;5.364;2023-05-20T11:31:52;22.70;39.50
69595;DHT22;56800;52.142;5.364;2023-05-20T11:34:22;22.60;39.30
69595;DHT22;56800;52.142;5.364;2023-05-20T11:36:56;22.50;39.20
69595;DHT22;56800;52.142;5.364;2023-05-20T11:39:24;22.40;39.00
69595;DHT22;56800;52.142;5.364;2023-05-20T11:41:53;22.20;39.00
69595;DHT22;56800;52.142;5.364;2023-05-20T11:44:19;22.10;39.50
69595;DHT22;56800;52.142;5.364;2023-05-20T11:46:47;22.10;40.30
69595;DHT22;56800;52.142;5.364;2023-05-20T11:49:14;22.20;40.60
69595;DHT22;56800;52.142;5.364;2023-05-20T11:51:44;22.30;40.20
69595;DHT22;56800;52.142;5.364;2023-05-20T11:54:11;22.50;40.10
69595;DHT22;56800;52.142;5.364;2023-05-20T11:56:38;22.60;40.20
69595;DHT22;56800;52.142;5.364;2023-05-20T11:59:08;22.70;39.80
69595;DHT22;56800;52.142;5.364;2023-05-20T12:01:37;22.80;39.50
69595;DHT22;56800;52.142;5.364;2023-05-20T12:04:09;22.90;39.20
69595;DHT22;56800;52.142;5.364;2023-05-20T12:06:36;22.90;38.90
69595;DHT22;56800;52.142;5.364;2023-05-20T12:09:04;22.90;38.90
69595;DHT22;56800;52.142;5.364;2023-05-20T12:11:35;22.90;39.20
69595;DHT22;56800;52.142;5.364;2023-05-20T12:14:03;22.90;39.00
69595;DHT22;56800;52.142;5.364;2023-05-20T12:16:31;22.90;39.20
69595;DHT22;56800;52.142;5.364;2023-05-20T12:18:58;22.80;39.30
69595;DHT22;56800;52.142;5.364;2023-05-20T12:21:25;22.80;39.30
69595;DHT22;56800;52.142;5.364;2023-05-20T12:23:52;22.70;39.20
69595;DHT22;56800;52.142;5.364;2023-05-20T12:26:24;22.60;39.30
69595;DHT22;56800;52.142;5.364;2023-05-20T12:28:51;22.40;39.50
69595;DHT22;56800;52.142;5.364;2023-05-20T12:31:19;22.40;39.90
69595;DHT22;56800;52.142;5.364;2023-05-20T12:33:46;22.30;39.90
69595;DHT22;56800;52.142;5.364;2023-05-20T12:36:13;22.40;40.00
69595;DHT22;56800;52.142;5.364;2023-05-20T12:38:40;22.50;40.20
69595;DHT22;56800;52.142;5.364;2023-05-20T12:41:07;22.70;41.00
69595;DHT22;56800;52.142;5.364;2023-05-20T12:43:34;22.80;39.90
69595;DHT22;56800;52.142;5.364;2023-05-20T12:46:03;22.90;39.60
69595;DHT22;56800;52.142;5.364;2023-05-20T12:48:30;22.80;39.60
69595;DHT22;56800;52.142;5.364;2023-05-20T12:50:57;22.80;39.50
69595;DHT22;56800;52.142;5.364;2023-05-20T12:53:24;22.60;39.20
69595;DHT22;56800;52.142;5.364;2023-05-20T12:55:51;22.60;39.20
69595;DHT22;56800;52.142;5.364;2023-05-20T12:58:17;22.50;39.20
69595;DHT22;56800;52.142;5.364;2023-05-20T13:00:44;22.60;39.30
69595;DHT22;56800;52.142;5.364;2023-05-20T13:03:11;22.70;40.30
69595;DHT22;56800;52.142;5.364;2023-05-20T13:05:38;22.80;39.50
69595;DHT22;56800;52.142;5.364;2023-05-20T13:08:04;22.70;39.40
69595;DHT22;56800;52.142;5.364;2023-05-20T13:10:32;22.70;39.40
69595;DHT22;56800;52.142;5.364;2023-05-20T13:12:59;22.60;39.50
69595;DHT22;56800;52.142;5.364;2023-05-20T13:15:25;22.60;39.40
69595;DHT22;56800;52.142;5.364;2023-05-20T13:17:52;22.60;39.80
69595;DHT22;56800;52.142;5.364;2023-05-20T13:20:20;22.60;40.00
69595;DHT22;56800;52.142;5.364;2023-05-20T13:22:47;22.70;40.10
69595;DHT22;56800;52.142;5.364;2023-05-20T13:25:15;22.80;40.10
69595;DHT22;56800;52.142;5.364;2023-05-20T13:27:42;23.10;40.10
69595;DHT22;56800;52.142;5.364;2023-05-20T13:30:09;23.30;39.70
69595;DHT22;56800;52.142;5.364;2023-05-20T13:32:36;23.50;39.40
69595;DHT22;56800;52.142;5.364;2023-05-20T13:35:03;23.60;38.60
69595;DHT22;56800;52.142;5.364;2023-05-20T13:37:30;23.70;39.00
69595;DHT22;56800;52.142;5.364;2023-05-20T13:39:57;24.00;38.80
69595;DHT22;56800;52.142;5.364;2023-05-20T13:42:23;24.10;38.50
69595;DHT22;56800;52.142;5.364;2023-05-20T13:44:50;24.10;38.30
69595;DHT22;56800;52.142;5.364;2023-05-20T13:47:17;24.10;38.10
69595;DHT22;56800;52.142;5.364;2023-05-20T13:49:43;24.00;37.60
69595;DHT22;56800;52.142;5.364;2023-05-20T13:52:10;23.90;37.80
69595;DHT22;56800;52.142;5.364;2023-05-20T13:54:37;23.80;38.00
69595;DHT22;56800;52.142;5.364;2023-05-20T13:57:04;23.80;38.00
69595;DHT22;56800;52.142;5.364;2023-05-20T13:59:33;23.80;38.20
69595;DHT22;56800;52.142;5.364;2023-05-20T14:02:00;23.80;38.60
69595;DHT22;56800;52.142;5.364;2023-05-20T14:04:28;23.80;38.60
69595;DHT22;56800;52.142;5.364;2023-05-20T14:06:56;23.80;38.40
69595;DHT22;56800;52.142;5.364;2023-05-20T14:09:24;23.80;38.40
69595;DHT22;56800;52.142;5.364;2023-05-20T14:11:51;23.70;38.20
69595;DHT22;56800;52.142;5.364;2023-05-20T14:14:17;23.60;38.40
69595;DHT22;56800;52.142;5.364;2023-05-20T14:16:44;23.50;38.60
69595;DHT22;56800;52.142;5.364;2023-05-20T14:19:11;23.50;38.70
69595;DHT22;56800;52.142;5.364;2023-05-20T14:21:38;23.40;38.80
69595;DHT22;56800;52.142;5.364;2023-05-20T14:24:04;23.30;38.90
69595;DHT22;56800;52.142;5.364;2023-05-20T14:26:34;23.30;39.00
69595;DHT22;56800;52.142;5.364;2023-05-20T14:29:01;23.30;39.00
69595;DHT22;56800;52.142;5.364;2023-05-20T14:31:28;23.30;38.90
69595;DHT22;56800;52.142;5.364;2023-05-20T14:33:54;23.30;38.90
69595;DHT22;56800;52.142;5.364;2023-05-20T14:36:21;23.40;38.90
69595;DHT22;56800;52.142;5.364;2023-05-20T14:38:48;23.40;38.90
69595;DHT22;56800;52.142;5.364;2023-05-20T14:41:15;23.60;39.10
69595;DHT22;56800;52.142;5.364;2023-05-20T14:43:42;23.80;38.90
69595;DHT22;56800;52.142;5.364;2023-05-20T14:46:09;23.90;38.60
69595;DHT22;56800;52.142;5.364;2023-05-20T14:48:36;23.90;38.20
69595;DHT22;56800;52.142;5.364;2023-05-20T14:51:03;23.90;38.20
69595;DHT22;56800;52.142;5.364;2023-05-20T14:53:30;24.00;38.20
69595;DHT22;56800;52.142;5.364;2023-05-20T14:55:57;24.00;38.40
69595;DHT22;56800;52.142;5.364;2023-05-20T14:58:23;24.00;38.60
69595;DHT22;56800;52.142;5.364;2023-05-20T15:00:52;23.90;38.30
69595;DHT22;56800;52.142;5.364;2023-05-20T15:03:18;23.80;37.90
69595;DHT22;56800;52.142;5.364;2023-05-20T15:05:46;23.70;38.00
69595;DHT22;56800;52.142;5.364;2023-05-20T15:08:12;23.50;38.10
69595;DHT22;56800;52.142;5.364;2023-05-20T15:10:39;23.50;38.40
69595;DHT22;56800;52.142;5.364;2023-05-20T15:13:06;23.40;38.60
69595;DHT22;56800;52.142;5.364;2023-05-20T15:15:33;23.30;38.70
69595;DHT22;56800;52.142;5.364;2023-05-20T15:18:00;23.20;38.80
69595;DHT22;56800;52.142;5.364;2023-05-20T15:20:26;23.10;38.80
69595;DHT22;56800;52.142;5.364;2023-05-20T15:22:53;23.00;39.10
69595;DHT22;56800;52.142;5.364;2023-05-20T15:25:20;22.90;39.00
69595;DHT22;56800;52.142;5.364;2023-05-20T15:27:47;22.80;38.80
69595;DHT22;56800;52.142;5.364;2023-05-20T15:30:13;22.70;38.90
69595;DHT22;56800;52.142;5.364;2023-05-20T15:32:40;22.60;39.00
69595;DHT22;56800;52.142;5.364;2023-05-20T15:35:08;22.50;39.30
69595;DHT22;56800;52.142;5.364;2023-05-20T15:37:35;22.40;39.50
69595;DHT22;56800;52.142;5.364;2023-05-20T15:40:02;22.40;39.60
69595;DHT22;56800;52.142;5.364;2023-05-20T15:42:29;22.40;39.80